Hobby, TX

3:09 AM CST on February 09, 2016 (GMT -0600)
Hobby | | Change Station
CLOSE
Current Station
Airport
Location: Houston,
Elevation: 46 ft
Nearby Weather Stations

Elev 46 ft 29.64 °N, 95.28 °W | Updated 16 minutes ago

Partly Cloudy
Partly Cloudy
44 °F
Feels Like 40 °F
N
7
Wind Variable Wind from West

Today
High -- | Low -- °F
--% Chance of Precip.
Yesterday
High -- | Low -- °F
Precip. -- in
Pressure 30.30 in
Visibility 10.0 miles
Clouds Few 25000 ft
Windchill 40 °F
Dew Point 19 °F
Humidity 37%
Rainfall 0.00 in
Snow Depth Not available.
7:05 AM 6:05 PM
New Moon, 1% visible
METAR KHOU 090853Z 28006KT 10SM FEW250 07/M07 A3028 RMK AO2 SLP258 T00671072 58006
Pressure 30.30 in
Visibility 10.0 miles
Clouds Few 25000 ft
Windchill 40 °F
Dew Point 19 °F
Humidity 37%
Rainfall 0.00 in
Snow Depth Not available.
7:05 AM 6:05 PM
New Moon, 1% visible
METAR KHOU 090853Z 28006KT 10SM FEW250 07/M07 A3028 RMK AO2 SLP258 T00671072 58006

10-Day Weather Forecast

Almanac

Astronomy

Feb. 09, 2016 Rise Set
Actual Time
Civil Twilight
Nautical Twilight
Astronomical Twilight
Moon
Length of Visible Light
Length of Day
Tomorrow will be .
, % of the Moon is Illuminated

Today's Extremes

State Highs State Lows

Community

WunderPhotos

Upload Photos

1,891,571 photos uploaded!

WunderBlog® & News

Nearby

Air Quality

  Air Quality AQ Index Pollutant
Not available.

Snow Depth

Station Depth Elevation

Earthquake Activity

City Distance Mag. Time & Date
Minimum magnitude displayed is 2.5.

Coastal Water Temperatures

Place Temperature

Stations

Nearby Weather Stations

Station Location Temp. Windchill Dew Point Humidity Wind Precip. Elev Updated Type
                   

Watches & Warnings

There are currently no watches in effect.